createdAt,value
2023-05-23T00:00:28.749Z,9.90
2023-05-23T00:03:03.700Z,9.90
2023-05-23T00:05:31.771Z,9.90
2023-05-23T00:08:01.691Z,9.90
2023-05-23T00:10:36.429Z,9.90
2023-05-23T00:13:05.505Z,9.90
2023-05-23T00:15:33.905Z,9.90
2023-05-23T00:18:08.370Z,9.90
2023-05-23T00:20:37.286Z,10.00
2023-05-23T00:23:08.070Z,10.00
2023-05-23T00:25:42.627Z,10.00
2023-05-23T00:28:10.657Z,10.00
2023-05-23T00:30:38.473Z,9.90
2023-05-23T00:33:13.544Z,9.90
2023-05-23T00:35:48.432Z,9.80
2023-05-23T00:38:24.496Z,9.70
2023-05-23T00:40:52.347Z,9.60
2023-05-23T00:43:21.254Z,9.60
2023-05-23T00:45:56.390Z,9.60
2023-05-23T00:48:24.765Z,9.60
2023-05-23T00:50:53.067Z,9.60
2023-05-23T00:53:29.533Z,9.60
2023-05-23T00:55:57.491Z,9.60
2023-05-23T00:58:26.198Z,9.50
2023-05-23T01:01:01.523Z,9.50
2023-05-23T01:03:30.368Z,9.50
2023-05-23T01:05:58.661Z,9.50
2023-05-23T01:08:37.718Z,9.50
2023-05-23T01:11:13.052Z,9.50
2023-05-23T01:13:52.711Z,9.50
2023-05-23T01:16:29.622Z,9.50
2023-05-23T01:19:08.631Z,9.60
2023-05-23T01:21:39.275Z,9.60
2023-05-23T01:24:42.381Z,9.60
2023-05-23T01:27:24.659Z,9.70
2023-05-23T01:30:04.550Z,9.70
2023-05-23T01:32:33.482Z,9.60
2023-05-23T01:35:16.488Z,9.60
2023-05-23T01:37:46.629Z,9.60
2023-05-23T01:40:14.558Z,9.60
2023-05-23T01:42:49.529Z,9.60
2023-05-23T01:45:19.322Z,9.60
2023-05-23T01:47:48.764Z,9.60
2023-05-23T01:50:24.571Z,9.50
2023-05-23T01:52:53.395Z,9.60
2023-05-23T01:55:24.335Z,9.50
2023-05-23T01:57:59.486Z,9.60
2023-05-23T02:00:29.018Z,9.60
2023-05-23T02:02:56.980Z,9.60
2023-05-23T02:05:31.514Z,9.50
2023-05-23T02:07:59.361Z,9.50
2023-05-23T02:10:27.254Z,9.40
2023-05-23T02:13:01.679Z,9.50
2023-05-23T02:15:30.894Z,9.50
2023-05-23T02:17:58.872Z,9.50
2023-05-23T02:20:33.482Z,9.50
2023-05-23T02:23:01.635Z,9.50
2023-05-23T02:25:29.478Z,9.50
2023-05-23T02:28:03.453Z,9.50
2023-05-23T02:30:32.649Z,9.60
2023-05-23T02:33:01.413Z,9.60
2023-05-23T02:35:35.506Z,9.60
2023-05-23T02:38:03.426Z,9.70
2023-05-23T02:40:31.289Z,9.70
2023-05-23T02:43:05.387Z,9.70
2023-05-23T02:45:34.735Z,9.70
2023-05-23T02:48:02.822Z,9.70
2023-05-23T02:50:38.778Z,9.80
2023-05-23T02:53:06.779Z,9.80
2023-05-23T02:55:34.787Z,9.80
2023-05-23T02:58:12.404Z,9.80
2023-05-23T03:00:43.739Z,9.80
2023-05-23T03:03:11.886Z,9.80
2023-05-23T03:05:46.534Z,9.80
2023-05-23T03:08:14.382Z,9.80
2023-05-23T03:10:42.225Z,9.80
2023-05-23T03:13:16.534Z,9.80
2023-05-23T03:15:46.233Z,9.80
2023-05-23T03:18:14.244Z,9.90
2023-05-23T03:20:48.545Z,9.90
2023-05-23T03:23:16.510Z,9.90
2023-05-23T03:25:45.002Z,9.90
2023-05-23T03:28:19.598Z,10.00
2023-05-23T03:30:48.803Z,10.00
2023-05-23T03:33:16.792Z,10.10
2023-05-23T03:35:51.635Z,10.10
2023-05-23T03:38:19.578Z,10.10
2023-05-23T03:40:47.586Z,10.20
2023-05-23T03:43:22.473Z,10.20
2023-05-23T03:45:51.936Z,10.30
2023-05-23T03:48:19.918Z,10.40
2023-05-23T03:51:00.597Z,10.40
2023-05-23T03:53:28.476Z,10.40
2023-05-23T03:55:56.370Z,10.40
2023-05-23T03:58:30.746Z,10.40
2023-05-23T04:01:01.888Z,10.40
2023-05-23T04:03:39.712Z,10.50
2023-05-23T04:06:08.058Z,10.50
2023-05-23T04:08:36.069Z,10.50
2023-05-23T04:11:11.681Z,10.60
2023-05-23T04:13:39.841Z,10.70
2023-05-23T04:16:10.401Z,10.70
2023-05-23T04:18:45.948Z,10.70
2023-05-23T04:21:13.995Z,10.80
2023-05-23T04:23:41.887Z,10.80
2023-05-23T04:26:18.652Z,10.80
2023-05-23T04:28:46.568Z,10.90
2023-05-23T04:31:15.869Z,11.00
2023-05-23T04:33:50.552Z,11.10
2023-05-23T04:36:25.702Z,11.10
2023-05-23T04:39:00.584Z,11.20
2023-05-23T04:41:28.505Z,11.10
2023-05-23T04:43:58.755Z,11.20
2023-05-23T04:46:34.628Z,11.30
2023-05-23T04:49:02.563Z,11.40
2023-05-23T04:51:30.634Z,11.50
2023-05-23T04:54:05.570Z,11.60
2023-05-23T04:56:33.596Z,11.70
2023-05-23T04:59:01.708Z,11.90
2023-05-23T05:01:37.472Z,12.00
2023-05-23T05:04:05.357Z,11.90
2023-05-23T05:06:33.319Z,11.90
2023-05-23T05:09:07.530Z,12.10
2023-05-23T05:11:35.440Z,12.10
2023-05-23T05:14:03.317Z,12.10
2023-05-23T05:16:39.630Z,12.10
2023-05-23T05:19:07.486Z,12.00
2023-05-23T05:21:35.490Z,12.10
2023-05-23T05:24:09.702Z,12.00
2023-05-23T05:26:37.759Z,12.00
2023-05-23T05:29:06.064Z,12.00
2023-05-23T05:31:42.620Z,12.00
2023-05-23T05:34:30.479Z,12.00
2023-05-23T05:37:04.580Z,12.10
2023-05-23T05:39:32.408Z,12.20
2023-05-23T05:42:03.942Z,12.20
2023-05-23T05:44:38.491Z,12.20
2023-05-23T05:47:08.160Z,12.30
2023-05-23T05:49:36.402Z,12.40
2023-05-23T05:52:10.594Z,12.60
2023-05-23T05:54:38.468Z,12.70
2023-05-23T05:57:06.851Z,12.70
2023-05-23T05:59:41.571Z,12.80
2023-05-23T06:02:11.006Z,13.00
2023-05-23T06:04:38.995Z,13.00
2023-05-23T06:07:13.720Z,13.10
2023-05-23T06:09:41.587Z,13.20
2023-05-23T06:12:10.086Z,13.10
2023-05-23T06:14:44.634Z,13.10
2023-05-23T06:17:15.706Z,13.10
2023-05-23T06:19:51.560Z,13.10
2023-05-23T06:22:19.614Z,13.10
2023-05-23T06:24:47.582Z,13.00
2023-05-23T06:27:24.697Z,13.00
2023-05-23T06:29:52.666Z,13.00
2023-05-23T06:32:21.843Z,13.00
2023-05-23T06:34:56.597Z,12.90
2023-05-23T06:37:24.474Z,12.80
2023-05-23T06:39:52.345Z,12.80
2023-05-23T06:42:26.495Z,12.90
2023-05-23T06:44:54.475Z,12.90
2023-05-23T06:47:24.534Z,13.00
2023-05-23T06:49:58.478Z,13.10
2023-05-23T06:52:26.291Z,13.20
2023-05-23T06:54:55.534Z,13.30
2023-05-23T06:57:29.669Z,13.30
2023-05-23T06:59:57.548Z,13.40
2023-05-23T07:02:26.773Z,13.30
2023-05-23T07:05:02.052Z,13.30
2023-05-23T07:07:30.270Z,13.30
2023-05-23T07:09:58.197Z,13.30
2023-05-23T07:12:34.642Z,13.30
2023-05-23T07:15:02.722Z,13.20
2023-05-23T07:17:39.684Z,13.20
2023-05-23T07:20:08.952Z,13.10
2023-05-23T07:22:36.768Z,13.00
2023-05-23T07:25:11.776Z,13.10
2023-05-23T07:27:40.124Z,13.10
2023-05-23T07:30:09.871Z,13.10
2023-05-23T07:32:45.804Z,13.20
2023-05-23T07:35:33.472Z,13.20
2023-05-23T07:38:07.566Z,13.20
2023-05-23T07:40:35.912Z,13.30
2023-05-23T07:43:03.740Z,13.30
2023-05-23T07:45:39.142Z,13.40
2023-05-23T07:48:08.482Z,13.50
2023-05-23T07:50:36.845Z,13.40
2023-05-23T07:53:11.621Z,13.60
2023-05-23T07:55:39.432Z,13.80
2023-05-23T07:58:09.385Z,13.90
2023-05-23T08:00:45.663Z,13.90
2023-05-23T08:03:15.232Z,14.10
2023-05-23T08:05:43.292Z,14.10
2023-05-23T08:08:17.623Z,14.10
2023-05-23T08:10:45.710Z,14.20
2023-05-23T08:13:13.706Z,14.30
2023-05-23T08:15:48.751Z,14.30
2023-05-23T08:18:18.259Z,14.40
2023-05-23T08:20:46.307Z,14.40
2023-05-23T08:23:21.593Z,14.30
2023-05-23T08:25:49.808Z,14.20
2023-05-23T08:28:17.615Z,14.10
2023-05-23T08:30:52.605Z,14.10
2023-05-23T08:33:21.760Z,14.10
2023-05-23T08:36:02.496Z,14.20
2023-05-23T08:38:36.608Z,14.00
2023-05-23T08:41:12.662Z,14.00
2023-05-23T08:43:40.671Z,14.00
2023-05-23T08:46:08.590Z,14.10
2023-05-23T08:48:47.521Z,14.20
2023-05-23T08:51:16.854Z,14.30
2023-05-23T08:53:54.648Z,14.30
2023-05-23T08:56:22.954Z,14.30
2023-05-23T08:58:53.146Z,14.30
2023-05-23T09:01:29.530Z,14.30
2023-05-23T09:04:04.912Z,14.40
2023-05-23T09:06:39.637Z,14.40
2023-05-23T09:09:07.608Z,14.50
2023-05-23T09:11:36.508Z,14.40
2023-05-23T09:14:14.632Z,14.40
2023-05-23T09:16:47.016Z,14.40
2023-05-23T09:19:24.669Z,14.50
2023-05-23T09:21:55.643Z,14.60
2023-05-23T09:24:23.711Z,14.80
2023-05-23T09:26:58.603Z,14.80
2023-05-23T09:29:26.747Z,14.80
2023-05-23T09:32:08.885Z,14.80
2023-05-23T09:35:04.102Z,15.00
2023-05-23T09:37:40.833Z,15.10
2023-05-23T09:40:11.250Z,15.20
2023-05-23T09:42:49.637Z,15.30
2023-05-23T09:45:18.152Z,15.30
2023-05-23T09:47:57.704Z,15.10
2023-05-23T09:50:31.666Z,14.90
2023-05-23T09:53:06.713Z,14.80
2023-05-23T09:55:34.777Z,14.70
2023-05-23T09:58:03.874Z,14.80
2023-05-23T10:00:39.773Z,14.90
2023-05-23T10:03:13.760Z,15.00
2023-05-23T10:05:52.652Z,15.00
2023-05-23T10:08:26.710Z,14.90
2023-05-23T10:11:45.680Z,14.90
2023-05-23T10:14:14.454Z,14.90
2023-05-23T10:16:57.829Z,14.90
2023-05-23T10:19:28.241Z,14.90
2023-05-23T10:22:07.748Z,14.80
2023-05-23T10:24:36.622Z,14.70
2023-05-23T10:27:04.977Z,14.70
2023-05-23T10:29:41.869Z,14.60
2023-05-23T10:32:11.212Z,14.50
2023-05-23T10:35:09.132Z,14.40
2023-05-23T10:37:41.820Z,14.30
2023-05-23T10:40:31.727Z,14.30
2023-05-23T10:43:06.806Z,14.30
2023-05-23T10:45:49.735Z,14.30
2023-05-23T10:48:24.069Z,14.30
2023-05-23T10:51:12.539Z,14.30
2023-05-23T10:53:43.251Z,14.30
2023-05-23T10:56:19.666Z,14.30
2023-05-23T10:58:47.702Z,14.30
2023-05-23T11:01:18.071Z,14.30
2023-05-23T11:03:58.786Z,14.30
2023-05-23T11:06:32.348Z,14.40
2023-05-23T11:09:12.584Z,14.50
2023-05-23T11:11:59.213Z,14.60
2023-05-23T11:14:41.756Z,14.80
2023-05-23T11:17:19.605Z,14.90
2023-05-23T11:20:13.871Z,14.90
2023-05-23T11:22:42.420Z,14.90
2023-05-23T11:25:12.695Z,14.90
2023-05-23T11:27:48.663Z,15.00
2023-05-23T11:30:18.321Z,14.90
2023-05-23T11:32:58.684Z,14.90
2023-05-23T11:35:46.511Z,14.90
2023-05-23T11:38:22.560Z,15.00
2023-05-23T11:40:51.778Z,15.20
2023-05-23T11:43:20.631Z,15.30
2023-05-23T11:45:56.015Z,15.40
2023-05-23T11:48:23.852Z,15.50
2023-05-23T11:50:54.009Z,15.70
2023-05-23T11:53:31.658Z,15.90
2023-05-23T11:56:04.038Z,15.90
2023-05-23T11:58:41.769Z,16.00
2023-05-23T12:01:10.759Z,16.00
2023-05-23T12:03:54.135Z,15.80
2023-05-23T12:06:24.656Z,16.00
2023-05-23T12:08:53.151Z,15.80
2023-05-23T12:11:30.626Z,15.50
2023-05-23T12:14:00.132Z,15.50
2023-05-23T12:16:29.791Z,15.40
2023-05-23T12:19:05.776Z,15.40
2023-05-23T12:21:44.664Z,15.30
2023-05-23T12:24:22.703Z,15.40
2023-05-23T12:26:54.145Z,15.40
2023-05-23T12:29:31.063Z,15.50
2023-05-23T12:32:01.020Z,15.50
2023-05-23T12:34:29.226Z,15.50
2023-05-23T12:37:18.956Z,15.70
2023-05-23T12:39:48.302Z,15.90
2023-05-23T12:42:24.559Z,15.80
2023-05-23T12:44:54.436Z,15.90
2023-05-23T12:47:22.500Z,15.90
2023-05-23T12:49:56.863Z,16.00
2023-05-23T12:52:24.720Z,16.10
2023-05-23T12:54:53.276Z,16.00
2023-05-23T12:57:29.681Z,15.90
2023-05-23T12:59:57.548Z,16.00
2023-05-23T13:02:25.712Z,16.10
2023-05-23T13:05:00.706Z,16.00
2023-05-23T13:07:29.513Z,16.00
2023-05-23T13:09:57.726Z,15.80
2023-05-23T13:12:33.990Z,15.80
2023-05-23T13:15:01.889Z,15.70
2023-05-23T13:17:29.770Z,15.60
2023-05-23T13:20:04.832Z,15.60
2023-05-23T13:22:33.364Z,15.50
2023-05-23T13:25:01.276Z,15.50
2023-05-23T13:27:37.574Z,15.50
2023-05-23T13:30:06.501Z,15.40
2023-05-23T13:32:34.415Z,15.30
2023-05-23T13:35:08.726Z,15.20
2023-05-23T13:37:43.791Z,15.30
2023-05-23T13:40:24.705Z,15.20
2023-05-23T13:42:54.177Z,15.10
2023-05-23T13:45:23.005Z,15.20
2023-05-23T13:47:57.729Z,15.00
2023-05-23T13:50:25.955Z,15.00
2023-05-23T13:52:53.920Z,15.10
2023-05-23T13:55:28.863Z,15.10
2023-05-23T13:57:57.997Z,14.90
2023-05-23T14:00:25.926Z,14.90
2023-05-23T14:03:00.739Z,14.90
2023-05-23T14:05:28.603Z,14.80
2023-05-23T14:07:56.532Z,14.80
2023-05-23T14:10:30.750Z,14.70
2023-05-23T14:12:59.982Z,14.60
2023-05-23T14:15:28.035Z,14.50
2023-05-23T14:18:04.252Z,14.50
2023-05-23T14:20:33.283Z,14.50
2023-05-23T14:23:01.320Z,14.40
2023-05-23T14:25:35.696Z,14.30
2023-05-23T14:28:04.870Z,14.20
2023-05-23T14:30:45.654Z,14.00
2023-05-23T14:33:13.503Z,13.90
2023-05-23T14:35:54.771Z,13.80
2023-05-23T14:38:29.345Z,13.70
2023-05-23T14:41:05.729Z,13.60
2023-05-23T14:43:34.906Z,13.50
2023-05-23T14:46:02.727Z,13.50
2023-05-23T14:48:37.774Z,13.50
2023-05-23T14:51:07.076Z,13.60
2023-05-23T14:53:34.931Z,13.50
2023-05-23T14:56:09.667Z,13.40
2023-05-23T14:58:40.202Z,13.30
2023-05-23T15:01:08.385Z,13.40
2023-05-23T15:03:42.791Z,13.20
2023-05-23T15:06:10.778Z,13.20
2023-05-23T15:08:38.610Z,13.30
2023-05-23T15:11:12.880Z,13.30
2023-05-23T15:13:42.235Z,13.20
2023-05-23T15:16:10.041Z,13.10
2023-05-23T15:18:44.892Z,13.10
2023-05-23T15:21:13.620Z,13.10
2023-05-23T15:23:41.553Z,13.20
2023-05-23T15:26:15.748Z,13.20
2023-05-23T15:28:45.124Z,13.10
2023-05-23T15:31:15.326Z,13.10
2023-05-23T15:33:50.702Z,13.00
2023-05-23T15:36:24.894Z,12.90
2023-05-23T15:39:06.074Z,12.90
2023-05-23T15:41:33.939Z,12.90
2023-05-23T15:44:03.239Z,12.90
2023-05-23T15:46:37.806Z,12.90
2023-05-23T15:49:13.754Z,12.90
2023-05-23T15:51:59.738Z,12.90
2023-05-23T15:54:27.678Z,12.90
2023-05-23T15:56:55.632Z,12.90
2023-05-23T15:59:31.950Z,12.90
2023-05-23T16:02:00.103Z,12.80
2023-05-23T16:04:29.107Z,12.80
2023-05-23T16:07:03.918Z,12.70
2023-05-23T16:09:31.989Z,12.70
2023-05-23T16:12:00.028Z,12.70
2023-05-23T16:14:35.899Z,12.60
2023-05-23T16:17:05.950Z,12.60
2023-05-23T16:19:34.041Z,12.60
2023-05-23T16:22:08.820Z,12.60
2023-05-23T16:24:36.605Z,12.60
2023-05-23T16:27:04.754Z,12.50
2023-05-23T16:29:40.827Z,12.50
2023-05-23T16:32:09.199Z,12.50
2023-05-23T16:34:37.368Z,12.50
2023-05-23T16:37:12.740Z,12.50
2023-05-23T16:39:41.483Z,12.40
2023-05-23T16:42:09.663Z,12.40
2023-05-23T16:44:45.829Z,12.30
2023-05-23T16:47:13.832Z,12.30
2023-05-23T16:49:41.777Z,12.30
2023-05-23T16:52:16.741Z,12.30
2023-05-23T16:54:44.583Z,12.30
2023-05-23T16:57:12.520Z,12.30
2023-05-23T16:59:49.019Z,12.30
2023-05-23T17:02:17.178Z,12.30
2023-05-23T17:04:45.324Z,12.20
2023-05-23T17:07:20.927Z,12.20
2023-05-23T17:09:48.757Z,12.20
2023-05-23T17:12:16.736Z,12.20
2023-05-23T17:14:52.725Z,12.20
2023-05-23T17:17:20.666Z,12.20
2023-05-23T17:19:48.747Z,12.20
2023-05-23T17:22:23.942Z,12.20
2023-05-23T17:24:51.958Z,12.20
2023-05-23T17:27:19.783Z,12.20
2023-05-23T17:29:55.828Z,12.10
2023-05-23T17:32:23.957Z,12.10
2023-05-23T17:34:52.051Z,12.10
2023-05-23T17:37:40.754Z,12.00
2023-05-23T17:40:16.406Z,12.00
2023-05-23T17:42:51.821Z,12.00
2023-05-23T17:45:21.968Z,11.90
2023-05-23T17:47:49.903Z,11.90
2023-05-23T17:50:24.960Z,11.80
2023-05-23T17:52:52.908Z,11.80
2023-05-23T17:55:23.387Z,11.80
2023-05-23T17:57:57.772Z,11.80
2023-05-23T18:00:27.254Z,11.80
2023-05-23T18:02:55.183Z,11.80
2023-05-23T18:05:31.075Z,11.70
2023-05-23T18:07:59.021Z,11.70
2023-05-23T18:10:26.848Z,11.70
2023-05-23T18:13:01.777Z,11.70
2023-05-23T18:15:30.974Z,11.70
2023-05-23T18:17:58.913Z,11.70
2023-05-23T18:20:34.133Z,11.70
2023-05-23T18:23:02.124Z,11.70
2023-05-23T18:25:29.992Z,11.70
2023-05-23T18:28:05.710Z,11.60
2023-05-23T18:30:35.182Z,11.60
2023-05-23T18:33:03.252Z,11.60
2023-05-23T18:35:37.839Z,11.60
2023-05-23T18:38:12.428Z,11.60
2023-05-23T18:40:46.690Z,11.60
2023-05-23T18:43:17.496Z,11.60
2023-05-23T18:45:54.930Z,11.60
2023-05-23T18:48:22.801Z,11.60
2023-05-23T18:50:50.675Z,11.60
2023-05-23T18:53:25.874Z,11.60
2023-05-23T18:55:53.707Z,11.60
2023-05-23T18:58:21.705Z,11.60
2023-05-23T19:00:57.850Z,11.60
2023-05-23T19:03:25.720Z,11.60
2023-05-23T19:05:53.676Z,11.60
2023-05-23T19:08:28.247Z,11.60
2023-05-23T19:10:56.177Z,11.60
2023-05-23T19:13:24.133Z,11.60
2023-05-23T19:15:59.754Z,11.60
2023-05-23T19:18:33.705Z,11.60
2023-05-23T19:21:08.854Z,11.60
2023-05-23T19:23:36.697Z,11.60
2023-05-23T19:26:05.052Z,11.60
2023-05-23T19:28:39.782Z,11.50
2023-05-23T19:31:09.435Z,11.50
2023-05-23T19:33:37.495Z,11.60
2023-05-23T19:36:12.844Z,11.50
2023-05-23T19:38:47.562Z,11.50
2023-05-23T19:41:21.733Z,11.60
2023-05-23T19:43:49.528Z,11.50
2023-05-23T19:46:18.762Z,11.50
2023-05-23T19:48:52.679Z,11.50
2023-05-23T19:51:21.083Z,11.50
2023-05-23T19:53:48.927Z,11.50
2023-05-23T19:56:24.163Z,11.50
2023-05-23T19:58:52.024Z,11.50
2023-05-23T20:01:21.404Z,11.50
2023-05-23T20:03:55.841Z,11.40
2023-05-23T20:06:23.994Z,11.40
2023-05-23T20:08:51.842Z,11.40
2023-05-23T20:11:27.092Z,11.40
2023-05-23T20:13:54.935Z,11.30
2023-05-23T20:16:24.619Z,11.40
2023-05-23T20:18:58.882Z,11.30
2023-05-23T20:21:26.865Z,11.30
2023-05-23T20:23:54.812Z,11.30
2023-05-23T20:26:30.084Z,11.30
2023-05-23T20:28:57.872Z,11.20
2023-05-23T20:31:28.226Z,11.30
2023-05-23T20:34:02.925Z,11.20
2023-05-23T20:36:37.881Z,11.20
2023-05-23T20:39:14.203Z,11.20
2023-05-23T20:41:43.679Z,11.20
2023-05-23T20:44:20.823Z,11.20
2023-05-23T20:46:50.537Z,11.10
2023-05-23T20:49:18.677Z,11.10
2023-05-23T20:51:52.901Z,11.10
2023-05-23T20:54:21.004Z,11.10
2023-05-23T20:56:49.892Z,11.10
2023-05-23T20:59:24.694Z,11.10
2023-05-23T21:01:54.566Z,11.10
2023-05-23T21:04:22.450Z,11.10
2023-05-23T21:06:56.853Z,11.00
2023-05-23T21:09:24.766Z,11.00
2023-05-23T21:11:52.564Z,11.00
2023-05-23T21:14:27.015Z,10.90
2023-05-23T21:16:58.807Z,10.90
2023-05-23T21:19:34.125Z,10.90
2023-05-23T21:22:02.300Z,10.90
2023-05-23T21:24:30.159Z,10.90
2023-05-23T21:27:04.823Z,10.90
2023-05-23T21:29:32.971Z,10.90
2023-05-23T21:32:02.477Z,10.90
2023-05-23T21:34:36.863Z,10.90
2023-05-23T21:37:24.655Z,10.90
2023-05-23T21:39:58.832Z,10.90
2023-05-23T21:42:26.633Z,10.90
2023-05-23T21:44:54.667Z,10.90
2023-05-23T21:47:31.946Z,10.90
2023-05-23T21:49:59.875Z,11.00
2023-05-23T21:52:27.682Z,10.90
2023-05-23T21:55:02.853Z,11.00
2023-05-23T21:57:30.649Z,11.00
2023-05-23T21:59:58.471Z,10.90
2023-05-23T22:02:34.005Z,11.00
2023-05-23T22:05:01.870Z,10.90
2023-05-23T22:07:29.689Z,10.90
2023-05-23T22:10:04.921Z,10.90
2023-05-23T22:12:33.652Z,11.00
2023-05-23T22:15:01.568Z,11.00
2023-05-23T22:17:41.064Z,11.00
2023-05-23T22:20:10.293Z,11.00
2023-05-23T22:22:40.271Z,10.90
2023-05-23T22:25:15.862Z,11.00
2023-05-23T22:27:43.719Z,11.00
2023-05-23T22:30:12.394Z,10.90
2023-05-23T22:32:47.758Z,11.00
2023-05-23T22:35:15.895Z,11.00
2023-05-23T22:37:56.872Z,10.90
2023-05-23T22:40:24.817Z,11.00
2023-05-23T22:42:52.667Z,11.00
2023-05-23T22:45:26.847Z,10.90
2023-05-23T22:47:58.228Z,10.90
2023-05-23T22:50:33.874Z,11.00
2023-05-23T22:53:02.104Z,11.00
2023-05-23T22:55:29.986Z,11.00
2023-05-23T22:58:04.905Z,11.00
2023-05-23T23:00:32.784Z,11.00
2023-05-23T23:03:02.497Z,11.00
2023-05-23T23:05:36.916Z,11.00
2023-05-23T23:08:04.996Z,11.00
2023-05-23T23:10:32.832Z,11.00
2023-05-23T23:13:06.823Z,10.90
2023-05-23T23:15:35.020Z,11.00
2023-05-23T23:18:05.789Z,11.00
2023-05-23T23:20:41.506Z,11.00
2023-05-23T23:23:09.802Z,11.00
2023-05-23T23:25:37.994Z,11.00
2023-05-23T23:28:12.856Z,11.00
2023-05-23T23:30:43.728Z,11.00
2023-05-23T23:33:20.749Z,11.00
2023-05-23T23:35:54.853Z,11.00
2023-05-23T23:38:35.749Z,11.00
2023-05-23T23:41:05.707Z,11.00
2023-05-23T23:43:33.526Z,11.00
2023-05-23T23:46:07.894Z,11.00
2023-05-23T23:48:37.119Z,11.00
2023-05-23T23:51:07.090Z,11.00
2023-05-23T23:53:41.828Z,11.00
2023-05-23T23:56:09.701Z,11.00
2023-05-23T23:58:37.802Z,11.00
